createdAt,value
2019-02-18T00:01:18.966Z,13.77
2019-02-18T00:03:49.321Z,14.40
2019-02-18T00:06:19.665Z,15.73
2019-02-18T00:08:49.966Z,15.50
2019-02-18T00:11:20.276Z,15.67
2019-02-18T00:13:52.400Z,13.93
2019-02-18T00:16:22.703Z,15.43
2019-02-18T00:18:53.060Z,15.57
2019-02-18T00:21:23.385Z,15.87
2019-02-18T00:23:53.821Z,15.47
2019-02-18T00:26:24.169Z,16.00
2019-02-18T00:28:54.480Z,16.47
2019-02-18T00:31:24.899Z,15.47
2019-02-18T00:33:55.230Z,17.70
2019-02-18T00:36:25.531Z,16.80
2019-02-18T00:38:57.081Z,16.47
2019-02-18T00:41:27.623Z,16.80
2019-02-18T00:43:57.913Z,16.93
2019-02-18T00:46:28.605Z,17.63
2019-02-18T00:48:58.914Z,17.90
2019-02-18T00:51:30.760Z,17.80
2019-02-18T00:54:01.061Z,18.23
2019-02-18T00:56:31.438Z,17.73
2019-02-18T00:59:03.599Z,17.80
2019-02-18T01:01:33.920Z,18.40
2019-02-18T01:04:04.203Z,17.83
2019-02-18T01:06:34.506Z,17.13
2019-02-18T01:09:06.342Z,16.50
2019-02-18T01:11:38.272Z,16.60
2019-02-18T01:14:08.607Z,17.17
2019-02-18T01:16:38.872Z,17.53
2019-02-18T01:19:09.299Z,17.67
2019-02-18T01:21:39.689Z,17.03
2019-02-18T01:24:10.008Z,17.57
2019-02-18T01:26:41.863Z,15.67
2019-02-18T01:29:12.166Z,16.93
2019-02-18T01:31:42.355Z,16.07
2019-02-18T01:34:12.674Z,17.33
2019-02-18T01:36:42.953Z,16.13
2019-02-18T01:39:13.255Z,15.87
2019-02-18T01:41:43.577Z,15.77
2019-02-18T01:44:13.919Z,15.90
2019-02-18T01:46:44.261Z,15.20
2019-02-18T01:49:14.562Z,16.33
2019-02-18T01:51:44.785Z,15.70
2019-02-18T01:54:15.127Z,15.40
2019-02-18T01:56:45.451Z,15.07
2019-02-18T01:59:15.786Z,15.00
2019-02-18T02:01:46.534Z,15.97
2019-02-18T02:04:16.858Z,16.27
2019-02-18T02:06:48.161Z,15.93
2019-02-18T02:09:18.683Z,17.57
2019-02-18T02:11:49.053Z,16.43
2019-02-18T02:14:19.487Z,17.20
2019-02-18T02:16:49.753Z,17.40
2019-02-18T02:19:20.107Z,18.30
2019-02-18T02:21:50.463Z,18.57
2019-02-18T02:24:20.803Z,18.80
2019-02-18T02:26:51.312Z,18.63
2019-02-18T02:29:21.711Z,19.97
2019-02-18T02:31:52.068Z,19.93
2019-02-18T02:34:22.440Z,19.23
2019-02-18T02:36:52.874Z,21.50
2019-02-18T02:39:23.183Z,20.33
2019-02-18T02:41:53.607Z,21.17
2019-02-18T02:44:24.050Z,20.73
2019-02-18T02:46:54.597Z,19.37
2019-02-18T02:49:24.953Z,21.70
2019-02-18T02:51:55.249Z,20.97
2019-02-18T02:54:25.571Z,21.50
2019-02-18T02:56:55.950Z,20.50
2019-02-18T02:59:26.227Z,20.67
2019-02-18T03:01:56.560Z,20.13
2019-02-18T03:04:27.000Z,18.97
2019-02-18T03:06:57.280Z,20.33
2019-02-18T03:09:28.170Z,19.97
2019-02-18T03:11:58.490Z,21.23
2019-02-18T03:14:28.812Z,20.70
2019-02-18T03:16:59.054Z,20.50
2019-02-18T03:19:29.696Z,20.53
2019-02-18T03:21:59.963Z,20.60
2019-02-18T03:24:30.346Z,20.07
2019-02-18T03:27:00.736Z,20.10
2019-02-18T03:30:08.128Z,20.27
2019-02-18T03:32:46.498Z,19.33
2019-02-18T03:35:16.891Z,20.40
2019-02-18T03:37:47.219Z,20.40
2019-02-18T03:40:17.595Z,20.30
2019-02-18T03:42:47.910Z,20.87
2019-02-18T03:45:18.384Z,20.67
2019-02-18T03:47:48.762Z,19.77
2019-02-18T03:50:19.143Z,21.17
2019-02-18T03:52:49.543Z,20.50
2019-02-18T03:55:19.873Z,23.47
2019-02-18T03:57:50.137Z,21.57
2019-02-18T04:00:20.580Z,21.77
2019-02-18T04:02:50.866Z,21.97
2019-02-18T04:05:21.319Z,21.07
2019-02-18T04:07:51.650Z,21.27
2019-02-18T04:10:23.785Z,20.63
2019-02-18T04:12:54.031Z,21.73
2019-02-18T04:15:24.434Z,21.33
2019-02-18T04:17:54.695Z,23.27
2019-02-18T04:20:25.112Z,23.43
2019-02-18T04:22:55.371Z,22.67
2019-02-18T04:25:25.693Z,22.80
2019-02-18T04:27:55.983Z,22.17
2019-02-18T04:30:26.235Z,22.37
2019-02-18T04:32:56.505Z,22.23
2019-02-18T04:35:26.992Z,21.87
2019-02-18T04:37:57.284Z,21.47
2019-02-18T04:40:27.555Z,22.97
2019-02-18T04:42:57.874Z,22.17
2019-02-18T04:45:28.227Z,21.87
2019-02-18T04:47:58.546Z,23.70
2019-02-18T04:50:28.872Z,22.37
2019-02-18T04:52:59.136Z,22.47
2019-02-18T04:55:29.460Z,22.13
2019-02-18T04:57:59.773Z,22.40
2019-02-18T05:00:30.200Z,22.47
2019-02-18T05:03:00.656Z,22.50
2019-02-18T05:05:31.125Z,22.47
2019-02-18T05:08:01.421Z,22.33
2019-02-18T05:10:31.790Z,23.10
2019-02-18T05:13:02.089Z,23.07
2019-02-18T05:15:32.439Z,21.03
2019-02-18T05:18:02.984Z,22.47
2019-02-18T05:20:34.144Z,22.50
2019-02-18T05:23:05.084Z,21.93
2019-02-18T05:25:35.426Z,22.17
2019-02-18T05:28:05.865Z,22.27
2019-02-18T05:30:36.235Z,23.27
2019-02-18T05:33:06.734Z,22.07
2019-02-18T05:35:37.132Z,23.63
2019-02-18T05:38:07.481Z,22.20
2019-02-18T05:40:37.879Z,22.80
2019-02-18T05:43:08.163Z,22.17
2019-02-18T05:45:38.505Z,21.97
2019-02-18T05:48:09.063Z,22.17
2019-02-18T05:50:39.563Z,21.20
2019-02-18T05:53:09.841Z,22.17
2019-02-18T05:55:40.168Z,21.87
2019-02-18T05:58:10.621Z,21.70
2019-02-18T06:00:42.465Z,22.37
2019-02-18T06:03:12.761Z,21.17
2019-02-18T06:05:43.114Z,21.37
2019-02-18T06:08:13.350Z,22.47
2019-02-18T06:10:43.725Z,21.50
2019-02-18T06:13:14.064Z,22.33
2019-02-18T06:15:44.423Z,21.00
2019-02-18T06:18:14.682Z,21.17
2019-02-18T06:20:45.100Z,21.40
2019-02-18T06:23:15.360Z,21.10
2019-02-18T06:25:45.756Z,21.40
2019-02-18T06:28:16.106Z,20.73
2019-02-18T06:30:47.932Z,22.17
2019-02-18T06:33:18.231Z,21.53
2019-02-18T06:35:48.555Z,20.87
2019-02-18T06:38:18.818Z,21.47
2019-02-18T06:40:50.372Z,20.90
2019-02-18T06:43:20.657Z,21.30
2019-02-18T06:46:06.644Z,20.83
2019-02-18T06:48:39.200Z,20.37
2019-02-18T06:51:09.657Z,21.90
2019-02-18T06:53:39.972Z,21.23
2019-02-18T06:56:10.329Z,21.67
2019-02-18T06:58:47.221Z,20.93
2019-02-18T07:01:39.333Z,21.60
2019-02-18T07:04:22.926Z,21.07
2019-02-18T07:07:16.246Z,20.63
2019-02-18T07:10:00.634Z,20.43
2019-02-18T07:12:46.303Z,20.97
2019-02-18T07:15:16.614Z,21.50
2019-02-18T07:17:47.010Z,20.73
2019-02-18T07:20:17.550Z,20.53
2019-02-18T07:22:47.904Z,20.90
2019-02-18T07:25:18.192Z,20.37
2019-02-18T07:27:48.573Z,19.97
2019-02-18T07:30:19.016Z,21.87
2019-02-18T07:32:49.318Z,20.53
2019-02-18T07:35:19.653Z,21.27
2019-02-18T07:37:50.478Z,20.07
2019-02-18T07:40:21.069Z,19.83
2019-02-18T07:42:51.493Z,21.80
2019-02-18T07:45:22.501Z,20.47
2019-02-18T07:47:54.433Z,19.67
2019-02-18T07:50:25.001Z,20.03
2019-02-18T07:52:55.381Z,19.90
2019-02-18T07:55:25.789Z,19.40
2019-02-18T07:57:56.373Z,19.27
2019-02-18T08:00:26.731Z,20.03
2019-02-18T08:02:57.309Z,19.80
2019-02-18T08:05:28.005Z,19.33
2019-02-18T08:07:58.552Z,19.00
2019-02-18T08:10:29.449Z,19.97
2019-02-18T08:13:01.418Z,18.37
2019-02-18T08:15:32.988Z,20.20
2019-02-18T08:18:06.285Z,18.77
2019-02-18T08:20:38.594Z,20.53
2019-02-18T08:23:12.171Z,20.93
2019-02-18T08:25:42.917Z,19.00
2019-02-18T08:28:16.751Z,20.63
2019-02-18T08:30:47.304Z,17.70
2019-02-18T08:33:17.732Z,18.63
2019-02-18T08:35:49.009Z,20.87
2019-02-18T08:38:19.483Z,19.63
2019-02-18T08:40:51.953Z,20.07
2019-02-18T08:43:22.421Z,19.57
2019-02-18T08:45:52.981Z,20.10
2019-02-18T08:48:25.009Z,19.27
2019-02-18T08:50:55.413Z,19.37
2019-02-18T08:53:25.824Z,19.13
2019-02-18T08:55:56.575Z,19.83
2019-02-18T08:58:27.270Z,20.23
2019-02-18T09:01:02.463Z,20.07
2019-02-18T09:03:30.006Z,20.43
2019-02-18T09:06:00.492Z,19.23
2019-02-18T09:08:30.826Z,19.00
2019-02-18T09:11:01.321Z,20.23
2019-02-18T09:13:32.854Z,20.50
2019-02-18T09:16:03.342Z,19.37
2019-02-18T09:18:33.746Z,22.07
2019-02-18T09:21:04.250Z,20.70
2019-02-18T09:23:49.276Z,19.73
2019-02-18T09:26:19.575Z,20.60
2019-02-18T09:28:50.020Z,19.47
2019-02-18T09:31:26.097Z,18.80
2019-02-18T09:33:58.631Z,19.77
2019-02-18T09:36:30.615Z,20.83
2019-02-18T09:39:01.073Z,23.57
2019-02-18T09:41:33.246Z,19.27
2019-02-18T09:44:03.630Z,18.73
2019-02-18T09:46:34.053Z,19.33
2019-02-18T09:49:06.048Z,21.07
2019-02-18T09:51:36.484Z,19.43
2019-02-18T09:54:07.020Z,21.90
2019-02-18T09:56:37.557Z,20.47
2019-02-18T09:59:07.942Z,20.13
2019-02-18T10:01:38.334Z,19.33
2019-02-18T10:04:08.831Z,20.00
2019-02-18T10:06:39.271Z,18.70
2019-02-18T10:09:09.685Z,19.97
2019-02-18T10:11:40.275Z,19.80
2019-02-18T10:14:10.665Z,19.90
2019-02-18T10:16:41.247Z,20.03
2019-02-18T10:19:11.665Z,19.97
2019-02-18T10:21:42.103Z,18.93
2019-02-18T10:24:12.586Z,18.87
2019-02-18T10:26:42.911Z,19.83
2019-02-18T10:29:13.478Z,19.63
2019-02-18T10:31:43.995Z,20.03
2019-02-18T10:34:14.429Z,20.27
2019-02-18T10:36:44.739Z,19.10
2019-02-18T10:39:15.262Z,19.33
2019-02-18T10:41:45.582Z,19.63
2019-02-18T10:44:16.269Z,19.33
2019-02-18T10:46:48.220Z,19.87
2019-02-18T10:49:20.277Z,19.07
2019-02-18T10:51:50.976Z,20.03
2019-02-18T10:54:21.422Z,18.63
2019-02-18T10:56:51.891Z,19.77
2019-02-18T10:59:22.402Z,18.40
2019-02-18T11:01:52.850Z,19.43
2019-02-18T11:04:23.403Z,18.30
2019-02-18T11:06:54.720Z,17.33
2019-02-18T11:09:25.256Z,17.33
2019-02-18T11:11:55.572Z,17.80
2019-02-18T11:14:26.192Z,19.83
2019-02-18T11:16:56.909Z,19.87
2019-02-18T11:19:27.459Z,19.40
2019-02-18T11:21:58.157Z,19.10
2019-02-18T11:24:28.818Z,18.33
2019-02-18T11:27:00.178Z,17.83
2019-02-18T11:29:30.584Z,16.97
2019-02-18T11:32:01.484Z,16.33
2019-02-18T11:34:33.613Z,15.57
2019-02-18T11:37:04.201Z,15.73
2019-02-18T11:39:36.984Z,15.57
2019-02-18T11:42:07.466Z,16.73
2019-02-18T11:44:37.967Z,15.93
2019-02-18T11:47:10.848Z,16.57
2019-02-18T11:49:41.454Z,16.03
2019-02-18T11:52:11.940Z,14.80
2019-02-18T11:54:42.379Z,15.83
2019-02-18T11:57:12.900Z,15.80
2019-02-18T11:59:43.546Z,14.00
2019-02-18T12:02:15.142Z,16.47
2019-02-18T12:04:45.656Z,14.87
2019-02-18T12:07:16.152Z,15.63
2019-02-18T12:09:46.670Z,16.70
2019-02-18T12:12:17.341Z,16.63
2019-02-18T12:14:49.465Z,16.77
2019-02-18T12:17:20.961Z,16.67
2019-02-18T12:19:51.713Z,16.10
2019-02-18T12:22:22.234Z,14.50
2019-02-18T12:24:52.639Z,16.77
2019-02-18T12:27:23.074Z,15.73
2019-02-18T12:29:53.550Z,14.63
2019-02-18T12:32:24.497Z,17.03
2019-02-18T12:34:56.150Z,15.30
2019-02-18T12:37:26.595Z,15.13
2019-02-18T12:39:57.464Z,14.90
2019-02-18T12:42:27.996Z,15.87
2019-02-18T12:44:58.556Z,17.57
2019-02-18T12:47:28.944Z,16.57
2019-02-18T12:49:59.342Z,15.53
2019-02-18T12:52:29.762Z,16.47
2019-02-18T12:55:00.754Z,14.67
2019-02-18T12:57:31.418Z,14.37
2019-02-18T13:00:02.443Z,14.43
2019-02-18T13:02:43.663Z,13.33
2019-02-18T13:05:07.445Z,15.53
2019-02-18T13:07:37.875Z,15.00
2019-02-18T13:10:08.469Z,15.33
2019-02-18T13:12:38.978Z,15.03
2019-02-18T13:15:11.065Z,14.00
2019-02-18T13:17:42.820Z,13.60
2019-02-18T13:20:13.478Z,12.93
2019-02-18T13:22:44.074Z,12.83
2019-02-18T13:25:17.224Z,13.70
2019-02-18T13:27:47.950Z,13.33
2019-02-18T13:30:18.548Z,13.50
2019-02-18T13:32:49.190Z,13.00
2019-02-18T13:35:20.840Z,13.33
2019-02-18T13:37:51.372Z,12.77
2019-02-18T13:40:21.766Z,12.53
2019-02-18T13:42:52.227Z,12.23
2019-02-18T13:45:22.660Z,12.63
2019-02-18T13:47:53.200Z,12.97
2019-02-18T13:50:23.561Z,12.40
2019-02-18T13:52:54.035Z,13.33
2019-02-18T13:55:28.009Z,12.60
2019-02-18T13:57:58.614Z,12.47
2019-02-18T14:00:29.003Z,11.40
2019-02-18T14:02:59.543Z,11.47
2019-02-18T14:05:30.065Z,12.93
2019-02-18T14:08:01.291Z,12.73
2019-02-18T14:10:31.827Z,11.73
2019-02-18T14:13:02.344Z,11.73
2019-02-18T14:15:32.744Z,12.17
2019-02-18T14:18:03.169Z,11.60
2019-02-18T14:20:33.635Z,11.27
2019-02-18T14:23:04.091Z,12.27
2019-02-18T14:25:34.518Z,12.50
2019-02-18T14:28:04.960Z,12.50
2019-02-18T14:30:35.591Z,12.50
2019-02-18T14:33:06.081Z,13.43
2019-02-18T14:35:36.744Z,13.10
2019-02-18T14:38:07.260Z,13.63
2019-02-18T14:40:37.604Z,13.77
2019-02-18T14:43:08.004Z,12.80
2019-02-18T14:45:38.346Z,14.23
2019-02-18T14:48:10.258Z,14.13
2019-02-18T14:50:40.805Z,13.63
2019-02-18T14:53:11.288Z,13.77
2019-02-18T14:55:41.686Z,13.40
2019-02-18T14:58:12.614Z,13.57
2019-02-18T15:00:43.152Z,14.37
2019-02-18T15:03:13.750Z,13.37
2019-02-18T15:05:46.958Z,12.63
2019-02-18T15:08:17.357Z,12.03
2019-02-18T15:10:47.938Z,13.63
2019-02-18T15:13:21.601Z,12.93
2019-02-18T15:15:52.046Z,11.70
2019-02-18T15:18:22.551Z,12.47
2019-02-18T15:20:53.568Z,12.13
2019-02-18T15:23:25.091Z,12.70
2019-02-18T15:25:55.697Z,11.70
2019-02-18T15:28:26.264Z,11.10
2019-02-18T15:30:56.711Z,12.17
2019-02-18T15:33:27.917Z,12.47
2019-02-18T15:35:58.434Z,11.97
2019-02-18T15:38:28.804Z,11.93
2019-02-18T15:41:02.368Z,13.70
2019-02-18T15:43:34.519Z,12.17
2019-02-18T15:46:05.432Z,12.07
2019-02-18T15:48:36.505Z,12.40
2019-02-18T15:51:06.981Z,13.20
2019-02-18T15:53:37.999Z,13.50
2019-02-18T15:56:08.783Z,12.77
2019-02-18T15:58:44.297Z,14.33
2019-02-18T16:01:16.332Z,14.93
2019-02-18T16:03:46.808Z,14.87
2019-02-18T16:06:17.577Z,15.23
2019-02-18T16:08:48.145Z,15.30
2019-02-18T16:11:18.599Z,16.07
2019-02-18T16:13:50.409Z,16.30
2019-02-18T16:16:20.851Z,16.57
2019-02-18T16:18:51.389Z,17.13
2019-02-18T16:21:21.895Z,17.80
2019-02-18T16:23:52.371Z,19.40
2019-02-18T16:26:22.981Z,17.37
2019-02-18T16:28:53.498Z,19.87
2019-02-18T16:31:27.011Z,18.70
2019-02-18T16:33:57.460Z,18.40
2019-02-18T16:36:27.956Z,19.33
2019-02-18T16:38:59.834Z,18.87
2019-02-18T16:41:31.767Z,20.13
2019-02-18T16:44:02.351Z,19.53
2019-02-18T16:46:33.191Z,19.77
2019-02-18T16:49:04.048Z,19.57
2019-02-18T16:51:34.559Z,21.67
2019-02-18T16:54:05.714Z,20.83
2019-02-18T16:56:36.286Z,22.00
2019-02-18T16:59:06.912Z,21.20
2019-02-18T17:01:37.535Z,22.33
2019-02-18T17:04:08.063Z,21.07
2019-02-18T17:06:38.541Z,21.83
2019-02-18T17:09:13.535Z,21.77
2019-02-18T17:11:45.544Z,22.13
2019-02-18T17:14:16.207Z,22.87
2019-02-18T17:16:46.792Z,22.87
2019-02-18T17:19:17.192Z,22.87
2019-02-18T17:21:47.800Z,23.60
2019-02-18T17:24:18.974Z,22.03
2019-02-18T17:26:49.769Z,23.33
2019-02-18T17:29:21.586Z,24.53
2019-02-18T17:31:53.535Z,23.93
2019-02-18T17:34:23.981Z,24.07
2019-02-18T17:36:54.585Z,23.70
2019-02-18T17:39:24.979Z,23.50
2019-02-18T17:41:55.617Z,23.47
2019-02-18T17:44:25.955Z,23.50
2019-02-18T17:46:59.247Z,24.40
2019-02-18T17:49:29.770Z,24.23
2019-02-18T17:52:01.896Z,22.67
2019-02-18T17:54:32.564Z,23.40
2019-02-18T17:57:03.100Z,24.90
2019-02-18T17:59:33.544Z,22.77
2019-02-18T18:02:05.202Z,22.97
2019-02-18T18:04:36.912Z,23.17
2019-02-18T18:07:07.384Z,23.97
2019-02-18T18:09:37.866Z,23.73
2019-02-18T18:12:08.639Z,23.87
2019-02-18T18:14:39.172Z,22.90
2019-02-18T18:17:10.029Z,22.60
2019-02-18T18:19:40.473Z,23.97
2019-02-18T18:22:11.170Z,22.40
2019-02-18T18:24:41.657Z,25.83
2019-02-18T18:27:12.147Z,23.23
2019-02-18T18:29:43.934Z,22.10
2019-02-18T18:32:14.781Z,23.63
2019-02-18T18:34:46.356Z,23.67
2019-02-18T18:37:16.886Z,22.30
2019-02-18T18:39:47.439Z,23.30
2019-02-18T18:42:18.912Z,21.80
2019-02-18T18:44:52.569Z,23.43
2019-02-18T18:47:24.511Z,22.70
2019-02-18T18:49:55.091Z,21.97
2019-02-18T18:52:25.673Z,23.43
2019-02-18T18:54:56.226Z,22.23
2019-02-18T18:57:29.120Z,21.67
2019-02-18T18:59:59.737Z,20.87
2019-02-18T19:02:30.203Z,20.77
2019-02-18T19:05:00.815Z,22.20
2019-02-18T19:07:31.599Z,22.73
2019-02-18T19:10:02.189Z,20.53
2019-02-18T19:12:33.357Z,19.67
2019-02-18T19:15:03.761Z,18.70
2019-02-18T19:17:34.715Z,20.87
2019-02-18T19:20:05.675Z,19.50
2019-02-18T19:22:36.136Z,20.47
2019-02-18T19:25:06.720Z,18.60
2019-02-18T19:27:37.196Z,19.67
2019-02-18T19:30:09.536Z,18.97
2019-02-18T19:32:41.571Z,18.70
2019-02-18T19:35:12.837Z,18.87
2019-02-18T19:37:43.295Z,17.83
2019-02-18T19:40:14.247Z,17.73
2019-02-18T19:42:44.675Z,18.17
2019-02-18T19:45:17.605Z,19.20
2019-02-18T19:47:48.148Z,18.30
2019-02-18T19:50:18.789Z,17.90
2019-02-18T19:52:49.289Z,18.97
2019-02-18T19:55:19.836Z,19.30
2019-02-18T19:57:50.340Z,17.90
2019-02-18T20:00:21.470Z,16.73
2019-02-18T20:02:52.137Z,18.37
2019-02-18T20:05:22.728Z,15.63
2019-02-18T20:07:53.269Z,15.80
2019-02-18T20:10:23.983Z,17.10
2019-02-18T20:12:54.962Z,18.80
2019-02-18T20:15:25.434Z,16.77
2019-02-18T20:17:56.088Z,18.13
2019-02-18T20:20:26.626Z,19.13
2019-02-18T20:22:57.340Z,19.13
2019-02-18T20:25:27.903Z,19.47
2019-02-18T20:28:02.534Z,20.70
2019-02-18T20:30:35.319Z,22.50
2019-02-18T20:33:05.747Z,21.77
2019-02-18T20:35:36.317Z,19.67
2019-02-18T20:38:07.106Z,21.37
2019-02-18T20:40:37.627Z,21.23
2019-02-18T20:43:08.205Z,21.50
2019-02-18T20:45:39.217Z,24.17
2019-02-18T20:48:09.956Z,20.93
2019-02-18T20:50:40.406Z,22.60
2019-02-18T20:53:10.910Z,23.43
2019-02-18T20:55:41.462Z,22.83
2019-02-18T20:58:12.148Z,24.17
2019-02-18T21:00:42.648Z,24.10
2019-02-18T21:03:13.132Z,24.33
2019-02-18T21:05:47.322Z,25.57
2019-02-18T21:08:19.865Z,24.47
2019-02-18T21:10:49.940Z,24.80
2019-02-18T21:13:20.521Z,26.47
2019-02-18T21:15:50.962Z,25.20
2019-02-18T21:18:21.453Z,25.17
2019-02-18T21:20:52.084Z,26.50
2019-02-18T21:23:24.031Z,27.33
2019-02-18T21:25:57.160Z,26.20
2019-02-18T21:28:27.505Z,26.47
2019-02-18T21:30:57.935Z,26.43
2019-02-18T21:33:28.394Z,26.10
2019-02-18T21:35:59.014Z,26.73
2019-02-18T21:38:29.494Z,29.43
2019-02-18T21:41:00.060Z,28.10
2019-02-18T21:43:30.759Z,28.33
2019-02-18T21:46:01.249Z,24.60
2019-02-18T21:48:31.750Z,24.73
2019-02-18T21:51:02.272Z,24.83
2019-02-18T21:53:32.748Z,24.50
2019-02-18T21:56:03.288Z,24.30
2019-02-18T21:58:33.768Z,22.67
2019-02-18T22:01:04.811Z,19.67
2019-02-18T22:03:38.338Z,17.90
2019-02-18T22:06:08.799Z,16.67
2019-02-18T22:08:39.391Z,13.93
2019-02-18T22:11:09.783Z,15.07
2019-02-18T22:13:41.610Z,13.30
2019-02-18T22:16:12.019Z,12.97
2019-02-18T22:18:42.463Z,11.10
2019-02-18T22:21:12.749Z,10.93
2019-02-18T22:23:43.453Z,9.10
2019-02-18T22:26:16.463Z,8.50
2019-02-18T22:28:46.957Z,6.47
2019-02-18T22:31:17.380Z,4.57
2019-02-18T22:33:47.806Z,4.50
2019-02-18T22:36:18.179Z,4.57
2019-02-18T22:38:48.651Z,3.30
2019-02-18T22:41:20.608Z,3.50
2019-02-18T22:43:51.060Z,3.10
2019-02-18T22:46:21.674Z,3.73
2019-02-18T22:48:52.015Z,3.17
2019-02-18T22:51:22.362Z,3.17
2019-02-18T22:53:52.840Z,3.30
2019-02-18T22:56:23.160Z,3.50
2019-02-18T22:58:54.946Z,4.40
2019-02-18T23:01:25.304Z,3.63
2019-02-18T23:03:55.872Z,7.00
2019-02-18T23:06:26.632Z,5.83
2019-02-18T23:08:57.099Z,3.80
2019-02-18T23:11:27.566Z,5.20
2019-02-18T23:13:57.953Z,5.30
2019-02-18T23:16:28.256Z,5.37
2019-02-18T23:18:58.651Z,3.33
2019-02-18T23:21:29.054Z,3.47
2019-02-18T23:23:59.503Z,2.80
2019-02-18T23:26:31.693Z,2.20
2019-02-18T23:29:02.189Z,2.43
2019-02-18T23:31:33.169Z,3.13
2019-02-18T23:34:03.892Z,2.40
2019-02-18T23:36:39.846Z,2.30
2019-02-18T23:39:20.033Z,2.00
2019-02-18T23:41:50.606Z,2.83
2019-02-18T23:44:21.067Z,2.53
2019-02-18T23:46:54.278Z,2.73
2019-02-18T23:49:24.726Z,3.00
2019-02-18T23:51:56.818Z,3.30
2019-02-18T23:54:27.233Z,3.10
2019-02-18T23:56:57.528Z,2.73
2019-02-18T23:59:27.905Z,2.93
